createdAt,value
2018-07-25T00:01:47.606Z,22.87
2018-07-25T00:04:16.659Z,22.83
2018-07-25T00:06:45.763Z,22.76
2018-07-25T00:09:14.950Z,22.72
2018-07-25T00:11:44.058Z,22.75
2018-07-25T00:14:13.332Z,22.76
2018-07-25T00:16:42.514Z,22.81
2018-07-25T00:19:11.593Z,22.82
2018-07-25T00:21:40.523Z,22.80
2018-07-25T00:24:09.514Z,22.87
2018-07-25T00:26:38.590Z,23.01
2018-07-25T00:29:07.787Z,22.95
2018-07-25T00:31:36.747Z,22.95
2018-07-25T00:34:05.609Z,22.88
2018-07-25T00:36:34.471Z,22.84
2018-07-25T00:39:03.566Z,22.78
2018-07-25T00:41:32.846Z,22.68
2018-07-25T00:44:01.851Z,22.61
2018-07-25T00:46:31.018Z,22.56
2018-07-25T00:49:00.027Z,22.47
2018-07-25T00:51:29.125Z,22.33
2018-07-25T00:53:58.274Z,22.25
2018-07-25T00:56:27.389Z,22.13
2018-07-25T00:58:56.307Z,22.14
2018-07-25T01:01:25.511Z,22.11
2018-07-25T01:03:54.585Z,22.13
2018-07-25T01:06:23.538Z,22.14
2018-07-25T01:08:52.651Z,22.19
2018-07-25T01:11:21.731Z,22.21
2018-07-25T01:13:50.597Z,22.25
2018-07-25T01:16:19.868Z,22.23
2018-07-25T01:18:49.198Z,22.20
2018-07-25T01:21:18.452Z,22.21
2018-07-25T01:23:47.701Z,22.22
2018-07-25T01:26:16.871Z,22.24
2018-07-25T01:28:45.610Z,22.23
2018-07-25T01:31:14.708Z,22.21
2018-07-25T01:33:43.590Z,22.25
2018-07-25T01:36:12.732Z,22.29
2018-07-25T01:38:41.892Z,22.32
2018-07-25T01:41:11.175Z,22.34
2018-07-25T01:43:40.099Z,22.37
2018-07-25T01:46:09.051Z,22.37
2018-07-25T01:48:38.045Z,22.34
2018-07-25T01:51:07.182Z,22.28
2018-07-25T01:53:36.327Z,22.23
2018-07-25T01:56:05.579Z,22.19
2018-07-25T01:58:34.760Z,22.14
2018-07-25T02:01:03.730Z,22.21
2018-07-25T02:03:32.727Z,22.28
2018-07-25T02:06:01.768Z,22.27
2018-07-25T02:08:30.887Z,22.23
2018-07-25T02:10:59.948Z,22.18
2018-07-25T02:13:29.259Z,22.17
2018-07-25T02:15:58.382Z,22.16
2018-07-25T02:18:27.531Z,22.18
2018-07-25T02:20:56.800Z,22.24
2018-07-25T02:23:25.658Z,22.28
2018-07-25T02:25:54.944Z,22.33
2018-07-25T02:28:23.951Z,22.43
2018-07-25T02:30:52.995Z,22.52
2018-07-25T02:33:26.254Z,22.50
2018-07-25T02:38:23.240Z,22.50
2018-07-25T02:40:52.402Z,22.51
2018-07-25T02:43:21.446Z,22.58
2018-07-25T02:45:50.372Z,22.69
2018-07-25T02:48:19.534Z,22.62
2018-07-25T02:50:48.430Z,22.53
2018-07-25T02:53:17.669Z,22.57
2018-07-25T02:55:46.760Z,22.59
2018-07-25T02:58:15.595Z,22.62
2018-07-25T03:00:44.713Z,22.61
2018-07-25T03:03:14.056Z,22.54
2018-07-25T03:05:43.126Z,22.49
2018-07-25T03:08:11.990Z,22.41
2018-07-25T03:10:45.254Z,22.45
2018-07-25T03:13:14.686Z,22.41
2018-07-25T03:15:43.899Z,22.41
2018-07-25T03:18:12.703Z,22.45
2018-07-25T03:20:41.501Z,22.43
2018-07-25T03:23:10.643Z,22.42
2018-07-25T03:25:39.856Z,22.40
2018-07-25T03:28:08.919Z,22.41
2018-07-25T03:30:38.170Z,22.43
2018-07-25T03:33:07.263Z,22.36
2018-07-25T03:35:36.593Z,22.45
2018-07-25T03:38:05.747Z,22.44
2018-07-25T03:40:34.850Z,22.45
2018-07-25T03:43:03.610Z,22.49
2018-07-25T03:48:00.690Z,22.54
2018-07-25T03:50:30.040Z,22.59
2018-07-25T03:52:59.274Z,22.62
2018-07-25T03:55:28.466Z,22.61
2018-07-25T03:57:57.842Z,22.62
2018-07-25T04:00:26.958Z,22.68
2018-07-25T04:02:56.227Z,22.76
2018-07-25T04:05:25.270Z,22.72
2018-07-25T04:07:54.321Z,22.76
2018-07-25T04:10:23.571Z,22.79
2018-07-25T04:12:52.768Z,22.83
2018-07-25T04:15:21.801Z,22.86
2018-07-25T04:17:50.739Z,22.91
2018-07-25T04:20:20.701Z,22.88
2018-07-25T04:22:49.587Z,22.85
2018-07-25T04:25:18.422Z,22.89
2018-07-25T04:27:47.743Z,22.85
2018-07-25T04:30:17.804Z,22.83
2018-07-25T04:32:46.960Z,22.88
2018-07-25T04:35:16.987Z,22.85
2018-07-25T04:37:45.841Z,22.91
2018-07-25T04:40:14.909Z,22.92
2018-07-25T04:42:44.096Z,22.92
2018-07-25T04:45:13.451Z,22.84
2018-07-25T04:47:42.558Z,22.85
2018-07-25T04:50:11.478Z,22.86
2018-07-25T04:52:40.295Z,22.86
2018-07-25T04:55:09.295Z,22.86
2018-07-25T04:57:38.463Z,22.90
2018-07-25T05:00:07.744Z,22.94
2018-07-25T05:02:36.787Z,23.02
2018-07-25T05:05:05.962Z,23.08
2018-07-25T05:07:35.163Z,23.08
2018-07-25T05:10:04.085Z,23.11
2018-07-25T05:12:33.010Z,23.08
2018-07-25T05:15:02.234Z,23.09
2018-07-25T05:17:31.331Z,23.08
2018-07-25T05:20:00.505Z,23.19
2018-07-25T05:22:29.610Z,23.14
2018-07-25T05:24:58.864Z,23.13
2018-07-25T05:27:28.059Z,23.18
2018-07-25T05:29:57.182Z,23.19
2018-07-25T05:32:26.439Z,23.24
2018-07-25T05:34:55.705Z,23.28
2018-07-25T05:37:24.915Z,23.31
2018-07-25T05:39:54.082Z,23.40
2018-07-25T05:42:23.291Z,23.58
2018-07-25T05:44:52.163Z,23.61
2018-07-25T05:47:21.417Z,23.77
2018-07-25T05:49:50.231Z,23.80
2018-07-25T05:52:19.347Z,23.75
2018-07-25T05:54:48.525Z,23.71
2018-07-25T05:57:17.799Z,23.68
2018-07-25T05:59:47.035Z,23.71
2018-07-25T06:02:15.871Z,23.79
2018-07-25T06:04:45.019Z,23.74
2018-07-25T06:07:14.218Z,23.75
2018-07-25T06:09:43.418Z,23.76
2018-07-25T06:12:12.654Z,23.76
2018-07-25T06:14:41.637Z,23.78
2018-07-25T06:17:11.049Z,23.82
2018-07-25T06:19:40.090Z,23.91
2018-07-25T06:22:08.999Z,23.83
2018-07-25T06:24:38.098Z,23.79
2018-07-25T06:27:07.140Z,23.85
2018-07-25T06:29:36.306Z,24.07
2018-07-25T06:32:05.502Z,24.09
2018-07-25T06:34:34.630Z,24.10
2018-07-25T06:37:03.526Z,24.07
2018-07-25T06:39:32.930Z,24.15
2018-07-25T06:42:02.327Z,24.29
2018-07-25T06:44:31.528Z,24.30
2018-07-25T06:47:00.586Z,24.32
2018-07-25T06:49:29.903Z,24.34
2018-07-25T06:51:59.075Z,24.35
2018-07-25T06:54:28.189Z,24.34
2018-07-25T06:56:57.435Z,24.46
2018-07-25T06:59:26.326Z,24.68
2018-07-25T07:01:55.456Z,24.81
2018-07-25T07:04:24.744Z,24.95
2018-07-25T07:06:53.802Z,24.96
2018-07-25T07:09:22.957Z,25.21
2018-07-25T07:11:52.002Z,25.39
2018-07-25T07:14:21.238Z,25.61
2018-07-25T07:16:50.558Z,25.71
2018-07-25T07:19:19.680Z,25.62
2018-07-25T07:21:48.867Z,25.62
2018-07-25T07:24:18.079Z,25.67
2018-07-25T07:26:47.378Z,25.90
2018-07-25T07:29:16.330Z,25.92
2018-07-25T07:31:45.594Z,25.94
2018-07-25T07:34:14.530Z,26.14
2018-07-25T07:36:43.891Z,26.15
2018-07-25T07:39:14.130Z,26.12
2018-07-25T07:41:43.375Z,26.06
2018-07-25T07:44:12.288Z,25.94
2018-07-25T07:46:41.175Z,25.93
2018-07-25T07:49:10.272Z,25.89
2018-07-25T07:51:39.014Z,25.75
2018-07-25T07:54:08.350Z,25.63
2018-07-25T07:56:37.290Z,25.62
2018-07-25T08:19:09.908Z,25.92
2018-07-25T08:21:39.179Z,25.79
2018-07-25T08:24:08.243Z,25.49
2018-07-25T08:26:37.470Z,25.20
2018-07-25T08:29:06.546Z,25.14
2018-07-25T08:31:35.579Z,25.18
2018-07-25T08:34:04.786Z,25.07
2018-07-25T08:36:33.999Z,25.13
2018-07-25T08:39:02.970Z,25.14
2018-07-25T08:41:31.808Z,25.05
2018-07-25T08:44:00.858Z,25.05
2018-07-25T08:46:29.562Z,25.11
2018-07-25T08:48:58.687Z,25.09
2018-07-25T08:51:27.803Z,25.12
2018-07-25T08:53:56.938Z,25.27
2018-07-25T08:56:26.062Z,25.53
2018-07-25T08:58:55.331Z,25.82
2018-07-25T09:01:24.343Z,25.98
2018-07-25T09:03:53.381Z,26.17
2018-07-25T09:06:22.272Z,26.32
2018-07-25T09:08:51.319Z,26.30
2018-07-25T09:11:26.582Z,26.44
2018-07-25T09:13:55.858Z,26.55
2018-07-25T09:16:24.632Z,27.01
2018-07-25T09:18:53.847Z,27.55
2018-07-25T09:21:23.218Z,28.12
2018-07-25T09:23:52.477Z,28.41
2018-07-25T09:26:21.705Z,28.58
2018-07-25T09:28:50.886Z,28.80
2018-07-25T09:31:19.985Z,28.54
2018-07-25T09:33:49.111Z,28.32
2018-07-25T09:36:18.277Z,28.25
2018-07-25T09:38:47.296Z,28.16
2018-07-25T09:41:16.565Z,28.17
2018-07-25T09:43:45.646Z,28.11
2018-07-25T09:46:14.838Z,27.81
2018-07-25T09:48:43.894Z,27.77
2018-07-25T09:51:12.742Z,27.75
2018-07-25T09:53:41.885Z,27.96
2018-07-25T09:56:11.127Z,28.13
2018-07-25T09:58:40.311Z,28.68
2018-07-25T10:01:09.661Z,29.88
2018-07-25T10:03:38.705Z,31.90
2018-07-25T10:06:07.893Z,34.16
2018-07-25T10:08:37.110Z,33.31
2018-07-25T10:11:06.211Z,32.53
2018-07-25T10:13:35.628Z,32.10
2018-07-25T10:16:04.811Z,33.08
2018-07-25T10:18:33.900Z,34.81
2018-07-25T10:21:03.477Z,36.09
2018-07-25T10:23:32.691Z,36.17
2018-07-25T10:26:01.535Z,35.91
2018-07-25T10:28:30.810Z,35.92
2018-07-25T10:30:59.727Z,37.12
2018-07-25T10:33:29.004Z,38.71
2018-07-25T10:35:58.000Z,40.02
2018-07-25T10:38:27.156Z,40.50
2018-07-25T10:40:56.372Z,39.18
2018-07-25T10:43:25.851Z,37.41
2018-07-25T10:45:55.640Z,36.33
2018-07-25T10:48:24.662Z,36.51
2018-07-25T10:50:53.964Z,35.66
2018-07-25T10:53:23.144Z,35.10
2018-07-25T10:55:52.400Z,34.47
2018-07-25T10:58:21.598Z,35.53
2018-07-25T11:00:50.867Z,35.95
2018-07-25T11:03:19.918Z,36.46
2018-07-25T11:05:49.327Z,37.87
2018-07-25T11:08:18.529Z,38.44
2018-07-25T11:10:47.460Z,39.07
2018-07-25T11:13:16.495Z,39.97
2018-07-25T11:15:45.663Z,39.56
2018-07-25T11:18:14.725Z,39.10
2018-07-25T11:20:43.914Z,39.52
2018-07-25T11:23:13.163Z,40.76
2018-07-25T11:25:41.798Z,42.06
2018-07-25T11:28:11.093Z,43.04
2018-07-25T11:30:40.098Z,41.73
2018-07-25T11:33:09.196Z,39.73
2018-07-25T11:35:38.384Z,39.70
2018-07-25T11:38:07.605Z,40.34
2018-07-25T11:40:36.759Z,39.90
2018-07-25T11:43:05.909Z,39.78
2018-07-25T11:45:34.845Z,39.97
2018-07-25T11:48:04.002Z,40.48
2018-07-25T11:50:33.235Z,39.53
2018-07-25T11:53:02.234Z,38.84
2018-07-25T11:55:31.407Z,38.13
2018-07-25T11:58:00.331Z,37.19
2018-07-25T12:00:29.513Z,36.35
2018-07-25T12:02:58.597Z,35.50
2018-07-25T12:05:27.680Z,34.73
2018-07-25T12:07:56.797Z,33.94
2018-07-25T12:10:26.010Z,33.19
2018-07-25T12:12:55.121Z,32.42
2018-07-25T12:15:24.235Z,31.81
2018-07-25T12:17:53.474Z,31.35
2018-07-25T12:20:22.794Z,31.06
2018-07-25T12:22:52.068Z,30.74
2018-07-25T12:25:21.434Z,30.46
2018-07-25T12:27:50.365Z,30.14
2018-07-25T12:30:19.551Z,29.93
2018-07-25T12:32:48.535Z,29.68
2018-07-25T12:35:17.764Z,29.53
2018-07-25T12:37:46.958Z,29.28
2018-07-25T12:40:15.877Z,29.13
2018-07-25T12:42:44.831Z,28.88
2018-07-25T12:45:14.594Z,28.52
2018-07-25T12:47:43.578Z,27.96
2018-07-25T12:50:12.579Z,27.78
2018-07-25T12:52:41.715Z,27.36
2018-07-25T12:55:10.841Z,27.01
2018-07-25T12:57:39.970Z,26.70
2018-07-25T13:00:09.218Z,26.59
2018-07-25T13:02:38.436Z,26.38
2018-07-25T13:05:07.962Z,26.17
2018-07-25T13:07:37.110Z,26.02
2018-07-25T13:10:06.550Z,26.05
2018-07-25T13:12:36.442Z,26.02
2018-07-25T13:15:05.966Z,26.06
2018-07-25T13:17:34.762Z,26.08
2018-07-25T13:20:03.775Z,26.03
2018-07-25T13:22:33.747Z,25.92
2018-07-25T13:25:03.741Z,25.88
2018-07-25T13:27:32.919Z,25.75
2018-07-25T13:30:02.059Z,25.71
2018-07-25T13:32:31.082Z,25.66
2018-07-25T13:35:00.323Z,25.66
2018-07-25T13:37:29.421Z,25.82
2018-07-25T13:39:58.265Z,25.95
2018-07-25T13:42:27.351Z,26.26
2018-07-25T13:44:56.432Z,26.47
2018-07-25T13:47:25.623Z,26.79
2018-07-25T13:49:54.778Z,27.15
2018-07-25T13:52:24.090Z,27.89
2018-07-25T13:54:53.269Z,28.89
2018-07-25T13:57:22.159Z,29.29
2018-07-25T13:59:50.995Z,29.15
2018-07-25T14:02:19.867Z,28.98
2018-07-25T14:04:48.843Z,29.78
2018-07-25T14:07:18.042Z,30.43
2018-07-25T14:09:46.998Z,30.91
2018-07-25T14:12:15.758Z,31.28
2018-07-25T14:14:44.615Z,31.22
2018-07-25T14:17:13.919Z,31.08
2018-07-25T14:19:43.138Z,30.80
2018-07-25T14:22:12.256Z,30.72
2018-07-25T14:24:41.170Z,30.83
2018-07-25T14:27:10.763Z,30.82
2018-07-25T14:29:40.035Z,30.84
2018-07-25T14:32:09.223Z,30.87
2018-07-25T14:34:38.351Z,30.74
2018-07-25T14:37:07.387Z,30.65
2018-07-25T14:39:37.123Z,30.58
2018-07-25T14:42:06.312Z,30.45
2018-07-25T14:44:35.456Z,30.23
2018-07-25T14:47:04.727Z,29.86
2018-07-25T14:49:33.857Z,29.41
2018-07-25T14:52:02.784Z,29.09
2018-07-25T14:54:31.799Z,28.90
2018-07-25T14:57:00.930Z,28.74
2018-07-25T14:59:30.134Z,28.59
2018-07-25T15:01:59.288Z,28.47
2018-07-25T15:04:28.343Z,28.48
2018-07-25T15:06:57.569Z,28.50
2018-07-25T15:09:27.016Z,28.62
2018-07-25T15:11:55.875Z,28.82
2018-07-25T15:14:24.898Z,28.87
2018-07-25T15:16:53.798Z,28.92
2018-07-25T15:19:22.876Z,28.98
2018-07-25T15:21:58.548Z,28.95
2018-07-25T15:24:27.583Z,28.93
2018-07-25T15:26:56.619Z,28.87
2018-07-25T15:29:25.916Z,28.78
2018-07-25T15:31:54.728Z,28.75
2018-07-25T15:34:23.998Z,28.74
2018-07-25T15:36:53.958Z,28.69
2018-07-25T15:39:25.006Z,28.62
2018-07-25T15:41:55.141Z,28.55
2018-07-25T15:44:25.412Z,28.56
2018-07-25T15:46:54.517Z,28.49
2018-07-25T15:49:23.466Z,28.49
2018-07-25T15:51:52.813Z,28.49
2018-07-25T15:54:21.971Z,28.51
2018-07-25T15:56:51.304Z,28.48
2018-07-25T15:59:20.388Z,28.47
2018-07-25T16:01:49.469Z,28.41
2018-07-25T16:04:18.450Z,28.41
2018-07-25T16:06:47.366Z,28.48
2018-07-25T16:09:16.383Z,28.47
2018-07-25T16:11:47.223Z,28.47
2018-07-25T16:14:16.411Z,28.51
2018-07-25T16:16:45.761Z,28.56
2018-07-25T16:19:15.094Z,28.56
2018-07-25T16:21:44.214Z,28.51
2018-07-25T16:24:13.575Z,28.49
2018-07-25T16:26:42.596Z,28.48
2018-07-25T16:29:11.882Z,28.39
2018-07-25T16:31:41.120Z,28.39
2018-07-25T16:34:09.939Z,28.26
2018-07-25T16:36:39.231Z,28.13
2018-07-25T16:39:11.590Z,28.00
2018-07-25T16:41:40.720Z,27.89
2018-07-25T16:44:09.975Z,27.89
2018-07-25T16:46:39.049Z,27.84
2018-07-25T16:49:08.487Z,27.82
2018-07-25T16:51:37.659Z,27.75
2018-07-25T16:54:06.662Z,27.73
2018-07-25T16:56:35.559Z,27.71
2018-07-25T16:59:04.657Z,27.70
2018-07-25T17:01:33.838Z,27.70
2018-07-25T17:04:03.091Z,27.68
2018-07-25T17:06:32.216Z,27.69
2018-07-25T17:09:01.300Z,27.62
2018-07-25T17:11:30.361Z,27.53
2018-07-25T17:13:59.670Z,27.44
2018-07-25T17:16:28.811Z,27.33
2018-07-25T17:18:58.107Z,27.18
2018-07-25T17:21:27.129Z,26.98
2018-07-25T17:23:56.166Z,26.71
2018-07-25T17:26:25.198Z,26.53
2018-07-25T17:28:54.516Z,26.45
2018-07-25T17:31:23.770Z,26.38
2018-07-25T17:33:52.778Z,26.30
2018-07-25T17:36:21.843Z,26.24
2018-07-25T17:38:50.986Z,26.16
2018-07-25T17:41:20.208Z,26.11
2018-07-25T17:43:49.343Z,25.98
2018-07-25T17:46:18.903Z,25.98
2018-07-25T17:48:48.296Z,25.94
2018-07-25T17:51:17.323Z,25.98
2018-07-25T17:53:46.494Z,25.95
2018-07-25T17:56:15.743Z,25.93
2018-07-25T17:58:44.983Z,25.90
2018-07-25T18:01:14.169Z,25.90
2018-07-25T18:03:42.994Z,25.90
2018-07-25T18:06:12.086Z,25.87
2018-07-25T18:08:41.020Z,25.77
2018-07-25T18:11:10.295Z,25.68
2018-07-25T18:13:44.620Z,25.66
2018-07-25T18:16:13.774Z,25.62
2018-07-25T18:18:43.170Z,25.62
2018-07-25T18:21:12.242Z,25.55
2018-07-25T18:23:41.436Z,25.57
2018-07-25T18:26:10.539Z,25.48
2018-07-25T18:28:39.850Z,25.49
2018-07-25T18:31:09.034Z,25.47
2018-07-25T18:33:37.742Z,25.48
2018-07-25T18:36:07.070Z,25.40
2018-07-25T18:38:36.215Z,25.41
2018-07-25T18:41:05.261Z,25.44
2018-07-25T18:43:34.533Z,25.42
2018-07-25T18:46:03.572Z,25.38
2018-07-25T18:51:08.082Z,25.31
2018-07-25T18:53:37.755Z,25.28
2018-07-25T18:56:07.373Z,25.21
2018-07-25T18:58:36.375Z,25.14
2018-07-25T19:01:06.329Z,25.09
2018-07-25T19:03:35.719Z,25.02
2018-07-25T19:06:04.959Z,24.97
2018-07-25T19:08:34.150Z,24.89
2018-07-25T19:11:03.503Z,24.84
2018-07-25T19:13:33.746Z,24.74
2018-07-25T19:16:04.396Z,24.62
2018-07-25T19:18:33.691Z,24.56
2018-07-25T19:21:02.799Z,24.52
2018-07-25T19:23:32.514Z,24.55
2018-07-25T19:26:01.745Z,24.55
2018-07-25T19:28:30.514Z,24.54
2018-07-25T19:30:59.743Z,24.47
2018-07-25T19:33:28.783Z,24.44
2018-07-25T19:35:57.998Z,24.39
2018-07-25T19:38:27.286Z,24.40
2018-07-25T19:40:56.074Z,24.38
2018-07-25T19:43:25.199Z,24.31
2018-07-25T19:45:54.464Z,24.36
2018-07-25T19:48:23.573Z,24.38
2018-07-25T19:50:52.710Z,24.36
2018-07-25T19:53:21.691Z,24.33
2018-07-25T19:55:50.923Z,24.32
2018-07-25T19:58:20.170Z,24.31
2018-07-25T20:00:49.318Z,24.27
2018-07-25T20:03:18.480Z,24.27
2018-07-25T20:05:48.038Z,24.25
2018-07-25T20:08:17.267Z,24.26
2018-07-25T20:10:47.047Z,24.29
2018-07-25T20:13:16.059Z,24.26
2018-07-25T20:15:49.914Z,24.27
2018-07-25T20:18:19.588Z,24.27
2018-07-25T20:20:49.270Z,24.27
2018-07-25T20:23:18.351Z,24.20
2018-07-25T20:25:47.490Z,24.18
2018-07-25T20:28:16.638Z,24.18
2018-07-25T20:30:45.822Z,24.17
2018-07-25T20:33:14.874Z,24.14
2018-07-25T20:35:44.734Z,24.08
2018-07-25T20:38:13.934Z,24.00
2018-07-25T20:40:42.665Z,24.01
2018-07-25T20:43:11.614Z,24.00
2018-07-25T20:45:40.772Z,23.98
2018-07-25T20:48:09.788Z,23.94
2018-07-25T20:50:39.078Z,23.90
2018-07-25T20:53:08.449Z,23.92
2018-07-25T20:55:37.578Z,23.92
2018-07-25T20:58:06.950Z,23.91
2018-07-25T21:00:36.535Z,23.91
2018-07-25T21:03:07.039Z,23.88
2018-07-25T21:05:36.090Z,23.91
2018-07-25T21:08:05.223Z,23.83
2018-07-25T21:10:34.531Z,23.78
2018-07-25T21:13:03.612Z,23.73
2018-07-25T21:15:32.754Z,23.69
2018-07-25T21:18:01.947Z,23.66
2018-07-25T21:20:30.995Z,23.68
2018-07-25T21:23:00.115Z,23.71
2018-07-25T21:25:29.267Z,23.78
2018-07-25T21:27:58.522Z,23.79
2018-07-25T21:30:27.619Z,23.77
2018-07-25T21:32:56.662Z,23.75
2018-07-25T21:35:25.863Z,23.76
2018-07-25T21:37:54.917Z,23.76
2018-07-25T21:40:24.093Z,23.71
2018-07-25T21:42:53.242Z,23.66
2018-07-25T21:45:22.404Z,23.65
2018-07-25T21:47:51.434Z,23.65
2018-07-25T21:50:20.511Z,23.65
2018-07-25T21:52:49.657Z,23.62
2018-07-25T21:55:18.515Z,23.65
2018-07-25T21:57:47.822Z,23.64
2018-07-25T22:00:17.492Z,23.65
2018-07-25T22:02:47.438Z,23.71
2018-07-25T22:05:16.782Z,23.67
2018-07-25T22:07:46.648Z,23.67
2018-07-25T22:10:15.849Z,23.69
2018-07-25T22:12:44.918Z,23.62
2018-07-25T22:15:13.994Z,23.57
2018-07-25T22:17:43.118Z,23.67
2018-07-25T22:20:13.082Z,23.65
2018-07-25T22:22:42.034Z,23.59
2018-07-25T22:25:11.193Z,23.58
2018-07-25T22:27:40.467Z,23.56
2018-07-25T22:30:09.546Z,23.55
2018-07-25T22:32:38.363Z,23.48
2018-07-25T22:35:07.557Z,23.49
2018-07-25T22:37:36.313Z,23.52
2018-07-25T22:40:05.597Z,23.55
2018-07-25T22:42:34.795Z,23.57
2018-07-25T22:45:03.913Z,23.51
2018-07-25T22:47:32.960Z,23.52
2018-07-25T22:50:02.141Z,23.54
2018-07-25T22:52:31.388Z,23.48
2018-07-25T22:55:00.603Z,23.54
2018-07-25T22:57:29.344Z,23.52
2018-07-25T22:59:58.301Z,23.51
2018-07-25T23:02:27.561Z,23.48
2018-07-25T23:04:56.682Z,23.46
2018-07-25T23:07:25.873Z,23.49
2018-07-25T23:09:55.018Z,23.49
2018-07-25T23:12:23.957Z,23.48
2018-07-25T23:14:53.283Z,23.48
2018-07-25T23:17:22.026Z,23.47
2018-07-25T23:19:51.159Z,23.47
2018-07-25T23:22:20.339Z,23.48
2018-07-25T23:24:49.448Z,23.48
2018-07-25T23:27:18.477Z,23.44
2018-07-25T23:29:47.479Z,23.45
2018-07-25T23:32:16.718Z,23.38
2018-07-25T23:34:45.830Z,23.43
2018-07-25T23:37:15.088Z,23.44
2018-07-25T23:39:44.398Z,23.38
2018-07-25T23:42:13.558Z,23.35
2018-07-25T23:44:42.699Z,23.35
2018-07-25T23:47:11.900Z,23.45
2018-07-25T23:49:40.662Z,23.47
2018-07-25T23:52:09.742Z,23.43
2018-07-25T23:54:38.947Z,23.49
2018-07-25T23:57:08.123Z,23.49
2018-07-25T23:59:37.326Z,23.41
